Swan Valley, Idaho
Current Conditions -  °F | °C
As of 6:56 AM on Friday 24 Oct 2014 (Local Time) from KDIJ Reporting Station
Overcast Overcast  
Wind Chill: 44°   Ceiling: 9000
Heat Index: 47°   Visibility: 10mi
Dew Point: 34°   Wind: 6mph
Humidity: 61%   Direction: 130°SE
Pressure: 30.2"   Gusts: NA
Location:  43.46°N, 111.34°W
Report Text: KDIJ 241256Z AUTO 13005KT 10SM OVC090 08/01 A3020 RMK AO2 T00830011 SLP182
Loading
Personal Weather Stations






























Interactive Weather Map
Tropical Storm Tracking
New forecast layout! Learn more

10-Day Weather Forecast

Advertisements
Track Severe Weather on mobile